createdAt,value
2022-10-17T00:03:23.231Z,76211.59
2022-10-17T00:07:25.015Z,76197.06
2022-10-17T00:11:26.847Z,76215.75
2022-10-17T00:15:29.939Z,76246.91
2022-10-17T00:19:31.535Z,76226.13
2022-10-17T00:23:33.769Z,76236.50
2022-10-17T00:27:36.201Z,76232.38
2022-10-17T00:31:39.116Z,76248.97
2022-10-17T00:35:40.566Z,76182.53
2022-10-17T00:39:42.119Z,76186.69
2022-10-17T00:43:52.816Z,76136.84
2022-10-17T00:48:00.923Z,76126.47
2022-10-17T00:52:06.124Z,76138.94
2022-10-17T00:56:08.424Z,76155.53
2022-10-17T01:00:11.672Z,76174.22
2022-10-17T01:04:14.859Z,76186.69
2022-10-17T01:08:16.685Z,76157.63
2022-10-17T01:12:22.040Z,76153.47
2022-10-17T01:16:35.609Z,76149.31
2022-10-17T01:21:30.291Z,76141.00
2022-10-17T01:25:45.828Z,76165.94
2022-10-17T01:29:59.959Z,76199.16
2022-10-17T01:34:08.304Z,76211.59
2022-10-17T01:38:13.432Z,76209.53
2022-10-17T01:42:20.136Z,76219.91
2022-10-17T01:46:26.755Z,76211.59
2022-10-17T01:50:34.331Z,76232.38
2022-10-17T01:54:41.475Z,76240.66
2022-10-17T01:58:48.531Z,76263.50
2022-10-17T02:02:53.220Z,76259.34
2022-10-17T02:06:56.040Z,76290.50
2022-10-17T02:11:03.359Z,76302.94
2022-10-17T02:15:17.137Z,76296.72
2022-10-17T02:19:35.203Z,76282.19
2022-10-17T02:23:47.419Z,76290.50
2022-10-17T02:27:52.920Z,76265.59
2022-10-17T02:32:00.468Z,76217.84
2022-10-17T02:36:07.107Z,76172.16
2022-10-17T02:40:12.596Z,76155.53
2022-10-17T02:44:14.579Z,76101.56
2022-10-17T02:48:22.292Z,76114.03
2022-10-17T02:52:28.763Z,76103.66
2022-10-17T02:56:39.803Z,76084.97
2022-10-17T03:00:42.534Z,76089.09
2022-10-17T03:04:45.052Z,76076.66
2022-10-17T03:08:46.636Z,76068.34
2022-10-17T03:12:49.395Z,76064.19
2022-10-17T03:16:50.867Z,76082.88
2022-10-17T03:20:52.333Z,76074.56
2022-10-17T03:24:53.784Z,76091.19
2022-10-17T03:28:56.720Z,76114.03
2022-10-17T03:32:58.591Z,76132.72
2022-10-17T03:37:00.177Z,76111.94
2022-10-17T03:41:02.039Z,76095.34
2022-10-17T03:45:05.729Z,76095.34
2022-10-17T03:49:08.839Z,76097.41
2022-10-17T03:53:10.366Z,76095.34
2022-10-17T03:57:12.227Z,76082.88
2022-10-17T04:01:17.728Z,76060.03
2022-10-17T04:05:19.492Z,76057.97
2022-10-17T04:09:21.099Z,76078.72
2022-10-17T04:13:22.571Z,76078.72
2022-10-17T04:17:25.836Z,76053.81
2022-10-17T04:21:31.963Z,76074.56
2022-10-17T04:25:36.046Z,76095.34
2022-10-17T04:29:38.471Z,76111.94
2022-10-17T04:33:41.651Z,76097.41
2022-10-17T04:37:43.091Z,76091.19
2022-10-17T04:41:44.697Z,76064.19
2022-10-17T04:45:46.284Z,76053.81
2022-10-17T04:49:49.055Z,76060.03
2022-10-17T04:53:50.554Z,76060.03
2022-10-17T04:57:52.036Z,76074.56
2022-10-17T05:01:53.519Z,76068.34
2022-10-17T05:05:56.563Z,76070.44
2022-10-17T05:09:58.367Z,76097.41
2022-10-17T05:14:01.767Z,76064.19
2022-10-17T05:18:03.814Z,76066.28
2022-10-17T05:22:07.191Z,76068.34
2022-10-17T05:26:08.760Z,76080.81
2022-10-17T05:30:11.367Z,76093.25
2022-10-17T05:34:13.971Z,76103.66
2022-10-17T05:38:16.909Z,76084.97
2022-10-17T05:42:18.594Z,76093.25
2022-10-17T05:46:20.254Z,76105.72
2022-10-17T05:50:21.866Z,76120.25
2022-10-17T05:54:24.929Z,76124.41
2022-10-17T06:02:49.201Z,76165.94
2022-10-17T06:06:50.749Z,76172.16
2022-10-17T06:10:53.651Z,76141.00
2022-10-17T06:14:55.132Z,76155.53
2022-10-17T06:18:56.730Z,76145.16
2022-10-17T06:22:58.210Z,76153.47
2022-10-17T06:27:01.233Z,76136.84
2022-10-17T06:31:05.089Z,76134.78
2022-10-17T06:35:07.519Z,76178.38
2022-10-17T06:39:08.957Z,76203.28
2022-10-17T06:43:11.942Z,76188.75
2022-10-17T06:47:15.380Z,76195.00
2022-10-17T06:51:19.312Z,76161.78
2022-10-17T06:55:23.007Z,76157.63
2022-10-17T06:59:26.409Z,76143.09
2022-10-17T07:03:28.558Z,76122.31
2022-10-17T07:07:30.908Z,76107.78
2022-10-17T07:11:34.296Z,76097.41
2022-10-17T07:15:38.435Z,76070.44
2022-10-17T07:19:39.869Z,76062.13
2022-10-17T07:23:41.446Z,76033.06
2022-10-17T07:27:43.927Z,75970.78
2022-10-17T07:31:46.742Z,75956.25
2022-10-17T07:35:48.166Z,75945.88
2022-10-17T07:39:49.585Z,75945.88
2022-10-17T07:43:51.018Z,75962.47
2022-10-17T07:47:57.092Z,75962.47
2022-10-17T07:51:58.606Z,75962.47
2022-10-17T07:56:04.219Z,75970.78
2022-10-17T08:00:07.310Z,75974.94
2022-10-17T08:04:10.320Z,75968.69
2022-10-17T08:08:11.729Z,75964.53
2022-10-17T08:12:14.256Z,75933.41
2022-10-17T08:16:15.912Z,75945.88
2022-10-17T08:20:18.869Z,75945.88
2022-10-17T08:24:20.600Z,75950.00
2022-10-17T08:28:22.134Z,75952.09
2022-10-17T08:32:26.301Z,75952.09
2022-10-17T08:36:29.345Z,75956.25
2022-10-17T08:40:32.019Z,75958.31
2022-10-17T08:44:49.127Z,75966.63
2022-10-17T08:48:52.129Z,75972.84
2022-10-17T08:53:00.552Z,75941.72
2022-10-17T08:57:02.053Z,75943.78
2022-10-17T09:01:13.303Z,75904.34
2022-10-17T09:05:27.259Z,75906.41
2022-10-17T09:09:39.950Z,75923.03
2022-10-17T09:13:54.675Z,75941.72
2022-10-17T09:17:59.634Z,75918.88
2022-10-17T09:22:04.231Z,75916.81
2022-10-17T09:26:11.427Z,75935.47
2022-10-17T09:30:44.259Z,75916.81
2022-10-17T09:34:47.008Z,75904.34
2022-10-17T09:38:50.926Z,75893.97
2022-10-17T09:42:53.942Z,75904.34
2022-10-17T09:47:11.144Z,75912.66
2022-10-17T09:51:21.914Z,75904.34
2022-10-17T09:55:34.450Z,75883.59
2022-10-17T09:59:39.439Z,75889.81
2022-10-17T10:03:41.008Z,75860.75
2022-10-17T10:07:44.817Z,75819.22
2022-10-17T10:11:49.739Z,75813.00
2022-10-17T10:15:53.519Z,75779.78
2022-10-17T10:19:55.349Z,75777.72
2022-10-17T10:24:06.326Z,75798.47
2022-10-17T10:28:10.795Z,75788.09
2022-10-17T10:32:20.374Z,75788.09
2022-10-17T10:36:23.263Z,75794.31
2022-10-17T10:40:28.391Z,75796.41
2022-10-17T10:44:31.925Z,75819.22
2022-10-17T10:48:36.598Z,75821.31
2022-10-17T10:52:43.662Z,75779.78
2022-10-17T10:56:52.652Z,75808.84
2022-10-17T11:00:57.641Z,75792.25
2022-10-17T11:05:04.366Z,75777.72
2022-10-17T11:09:15.986Z,75779.78
2022-10-17T11:13:22.873Z,75781.88
2022-10-17T11:17:32.672Z,75792.25
2022-10-17T11:21:43.499Z,75802.63
2022-10-17T11:25:45.579Z,75802.63
2022-10-17T11:29:47.012Z,75798.47
2022-10-17T11:33:52.732Z,75808.84
2022-10-17T11:38:06.421Z,75821.31
2022-10-17T11:42:13.004Z,75825.47
2022-10-17T11:46:18.247Z,75817.16
2022-10-17T11:54:52.635Z,75875.28
2022-10-17T11:59:15.089Z,75889.81
2022-10-17T12:03:29.285Z,75920.94
2022-10-17T12:07:47.385Z,75937.56
2022-10-17T12:11:53.877Z,75950.00
2022-10-17T12:15:56.036Z,75937.56
2022-10-17T12:20:26.047Z,75904.34
2022-10-17T12:24:37.200Z,75908.50
2022-10-17T12:28:44.456Z,75918.88
2022-10-17T12:33:06.327Z,75939.63
2022-10-17T12:37:11.158Z,75970.78
2022-10-17T12:41:13.631Z,75997.75
2022-10-17T12:45:47.166Z,76008.16
2022-10-17T12:49:52.019Z,76028.91
2022-10-17T12:53:59.315Z,76028.91
2022-10-17T12:58:03.882Z,76037.22
2022-10-17T13:02:18.056Z,76049.66
2022-10-17T13:06:21.833Z,76060.03
2022-10-17T13:14:34.700Z,76062.13
2022-10-17T13:18:37.662Z,76070.44
2022-10-17T13:22:45.165Z,76070.44
2022-10-17T13:26:46.649Z,76064.19
2022-10-17T13:30:49.833Z,76033.06
2022-10-17T13:35:13.253Z,76047.59
2022-10-17T13:39:19.644Z,76060.03
2022-10-17T13:43:22.958Z,76057.97
2022-10-17T13:47:26.926Z,76070.44
2022-10-17T13:51:29.774Z,76074.56
2022-10-17T13:55:31.338Z,76064.19
2022-10-17T13:59:38.557Z,76051.75
2022-10-17T14:03:48.285Z,76039.28
2022-10-17T14:08:12.363Z,76028.91
2022-10-17T14:12:15.174Z,76022.69
2022-10-17T14:16:16.843Z,76008.16
2022-10-17T14:24:44.731Z,75987.38
2022-10-17T14:28:48.563Z,76020.59
2022-10-17T14:32:50.337Z,76030.97
2022-10-17T14:36:53.367Z,76033.06
2022-10-17T14:41:09.754Z,76024.75
2022-10-17T14:45:26.551Z,76008.16
2022-10-17T14:49:34.504Z,76035.13
2022-10-17T14:53:36.744Z,76030.97
2022-10-17T14:57:44.645Z,76012.28
2022-10-17T15:01:46.204Z,76006.06
2022-10-17T15:05:48.411Z,76024.75
2022-10-17T15:09:53.176Z,76026.84
2022-10-17T15:13:56.014Z,76053.81
2022-10-17T15:22:17.473Z,76064.19
2022-10-17T15:26:22.029Z,76053.81
2022-10-17T15:30:27.225Z,76076.66
2022-10-17T15:34:28.836Z,76091.19
2022-10-17T15:38:30.393Z,76103.66
2022-10-17T15:42:32.566Z,76128.56
2022-10-17T15:46:36.048Z,76118.19
2022-10-17T15:50:37.683Z,76107.78
2022-10-17T15:54:39.302Z,76116.09
2022-10-17T15:58:40.807Z,76134.78
2022-10-17T16:02:44.101Z,76155.53
2022-10-17T16:06:45.760Z,76178.38
2022-10-17T16:10:47.247Z,76203.28
2022-10-17T16:14:48.739Z,76226.13
2022-10-17T16:18:51.740Z,76261.44
2022-10-17T16:22:54.043Z,76290.50
2022-10-17T16:26:55.613Z,76315.41
2022-10-17T16:30:57.085Z,76319.56
2022-10-17T16:35:00.316Z,76336.19
2022-10-17T16:39:01.892Z,76348.63
2022-10-17T16:43:03.489Z,76365.25
2022-10-17T16:47:05.884Z,76390.16
2022-10-17T16:51:08.713Z,76408.84
2022-10-17T16:55:10.737Z,76427.53
2022-10-17T16:59:12.302Z,76419.22
2022-10-17T17:03:13.854Z,76433.75
2022-10-17T17:07:17.962Z,76440.00
2022-10-17T17:11:21.235Z,76440.00
2022-10-17T17:15:22.818Z,76452.44
2022-10-17T17:19:24.507Z,76452.44
2022-10-17T17:23:28.006Z,76475.28
2022-10-17T17:27:29.822Z,76485.66
2022-10-17T17:31:33.825Z,76489.81
2022-10-17T17:35:38.699Z,76500.19
2022-10-17T17:39:42.589Z,76493.97
2022-10-17T17:43:45.276Z,76510.59
2022-10-17T17:47:46.711Z,76489.81
2022-10-17T17:51:48.270Z,76510.59
2022-10-17T17:56:02.098Z,76518.88
2022-10-17T18:00:05.012Z,76529.25
2022-10-17T18:04:08.290Z,76545.88
2022-10-17T18:08:09.695Z,76535.50
2022-10-17T18:12:12.620Z,76537.56
2022-10-17T18:16:14.229Z,76556.25
2022-10-17T18:20:16.330Z,76543.81
2022-10-17T18:24:19.732Z,76558.34
2022-10-17T18:28:22.865Z,76558.34
2022-10-17T18:32:24.588Z,76570.78
2022-10-17T18:36:27.270Z,76572.88
2022-10-17T18:40:28.892Z,76577.03
2022-10-17T18:44:31.774Z,76597.78
2022-10-17T18:48:34.046Z,76601.94
2022-10-17T18:52:35.679Z,76608.16
2022-10-17T18:56:37.396Z,76620.63
2022-10-17T19:00:40.283Z,76620.63
2022-10-17T19:04:41.756Z,76631.00
2022-10-17T19:08:43.969Z,76618.56
2022-10-17T19:12:45.514Z,76616.47
2022-10-17T19:16:49.978Z,76624.78
2022-10-17T19:20:51.630Z,76643.47
2022-10-17T19:24:53.051Z,76649.69
2022-10-17T19:28:54.728Z,76664.22
2022-10-17T19:32:57.730Z,76678.75
2022-10-17T19:36:59.310Z,76689.16
2022-10-17T19:41:04.672Z,76689.16
2022-10-17T19:45:08.319Z,76685.00
2022-10-17T19:49:13.303Z,76676.69
2022-10-17T19:53:14.838Z,76693.31
2022-10-17T19:57:16.479Z,76701.59
2022-10-17T20:01:20.086Z,76709.91
2022-10-17T20:05:27.266Z,76714.06
2022-10-17T20:09:29.626Z,76732.75
2022-10-17T20:13:31.470Z,76732.75
2022-10-17T20:21:42.483Z,76734.81
2022-10-17T20:25:45.447Z,76747.28
2022-10-17T20:29:47.086Z,76751.44
2022-10-17T20:33:48.552Z,76768.06
2022-10-17T20:37:51.525Z,76763.91
2022-10-17T20:41:53.402Z,76768.06
2022-10-17T20:46:03.601Z,76759.75
2022-10-17T20:50:10.258Z,76784.66
2022-10-17T20:54:13.235Z,76788.81
2022-10-17T20:58:14.651Z,76792.97
2022-10-17T21:02:16.258Z,76782.59
2022-10-17T21:06:19.435Z,76772.19
2022-10-17T21:10:34.942Z,76784.66
2022-10-17T21:14:37.439Z,76786.75
2022-10-17T21:18:39.902Z,76801.28
2022-10-17T21:22:41.475Z,76815.81
2022-10-17T21:26:45.782Z,76824.13
2022-10-17T21:30:47.199Z,76822.03
2022-10-17T21:34:48.746Z,76822.03
2022-10-17T21:38:52.087Z,76834.50
2022-10-17T21:42:55.029Z,76830.34
2022-10-17T21:46:56.710Z,76828.25
2022-10-17T21:50:59.846Z,76832.41
2022-10-17T21:55:01.454Z,76830.34
2022-10-17T21:59:04.992Z,76834.50
2022-10-17T22:03:06.630Z,76822.03
2022-10-17T22:07:08.120Z,76815.81
2022-10-17T22:11:11.890Z,76805.44
2022-10-17T22:19:18.009Z,76824.13
2022-10-17T22:23:19.745Z,76838.66
2022-10-17T22:27:21.287Z,76846.97
2022-10-17T22:31:24.534Z,76849.03
2022-10-17T22:35:26.227Z,76851.09
2022-10-17T22:39:27.681Z,76849.03
2022-10-17T22:43:29.473Z,76838.66
2022-10-17T22:47:32.596Z,76853.19
2022-10-17T22:51:34.370Z,76846.97
2022-10-17T22:55:35.830Z,76842.81
2022-10-17T22:59:37.510Z,76846.97
2022-10-17T23:03:40.394Z,76859.41
2022-10-17T23:07:42.022Z,76863.56
2022-10-17T23:11:43.637Z,76873.94
2022-10-17T23:15:45.534Z,76878.09
2022-10-17T23:19:48.355Z,76865.66
2022-10-17T23:23:49.978Z,76871.88
2022-10-17T23:27:51.762Z,76873.94
2022-10-17T23:31:54.678Z,76882.25
2022-10-17T23:35:57.592Z,76876.03
2022-10-17T23:39:59.306Z,76871.88
2022-10-17T23:44:00.690Z,76863.56
2022-10-17T23:48:02.222Z,76867.72
2022-10-17T23:52:05.401Z,76859.41
2022-10-17T23:56:08.237Z,76863.56
